Fort Loramie, Ohio
Current Conditions -  °F | °C
As of 4:34 AM on Tuesday 21 Oct 2014 (Local Time) from KAXV Reporting Station
Overcast Overcast  
Wind Chill: 50°   Ceiling: 6000
Heat Index: 50°   Visibility: 10mi
Dew Point: 46°   Wind: 7mph
Humidity: 87%   Direction: 320°NW
Pressure: 29.93"   Gusts: NA
Location:  40.35°N, 84.37°W
Report Text: KAXV 210834Z AUTO 32006KT 10SM OVC060 10/08 A2993 RMK AO2
Loading
Personal Weather Stations






























Interactive Weather Map
Tropical Storm Tracking
New forecast layout! Learn more

10-Day Weather Forecast

Advertisements
Track Severe Weather on mobile